Jauja, Jauja Francisco Carle Airport (SPJJ)

NameJauja Francisco Carle Airport
CityJauja
CountryPeru
ICAOSPJJ
IATAJAU
Altitude3363 m
CoordinatesGoogle Map
Live Air TrafficLiveATC.net
METARSPJJ 181705Z 01014KT 9999 VCSH FEW030CB SCT040TCU BKN080 16/08 Q1031
2019-02-18 17:05:00 Wind: North (10°) 7.2 m/s - Visibility: > 10000 m - Weather: Vicinity Showers - Temperature: 16 °C - Dew point: 8 °C - Humidity: 59.3% - Pressure: 1031 hPa
Statistics

The table below shows the detailed information of all flights to/from Jauja, Jauja Francisco Carle Airport (SPJJ).